createdAt,value
2017-03-05T07:45:42.691Z,998.02
2017-03-05T07:46:42.728Z,997.89
2017-03-05T07:47:42.750Z,998.01
2017-03-05T07:48:42.782Z,997.96
2017-03-05T07:49:42.812Z,997.97
2017-03-05T07:50:42.840Z,998.01
2017-03-05T07:51:42.868Z,998.02
2017-03-05T07:52:42.897Z,998.03
2017-03-05T07:53:42.932Z,997.97
2017-03-05T07:54:42.960Z,998.01
2017-03-05T07:55:42.989Z,998.04
2017-03-05T07:56:43.007Z,998.09
2017-03-05T07:57:43.060Z,998.13
2017-03-05T07:58:43.078Z,998.14
2017-03-05T07:59:43.109Z,998.17
2017-03-05T08:00:43.141Z,998.17
2017-03-05T08:01:43.169Z,998.14
2017-03-05T08:02:43.187Z,998.25
2017-03-05T08:03:43.225Z,998.25
2017-03-05T08:04:43.259Z,998.21
2017-03-05T08:05:43.288Z,998.23
2017-03-05T08:06:43.319Z,998.27
2017-03-05T08:07:43.345Z,998.33
2017-03-05T08:08:43.379Z,998.29
2017-03-05T08:09:43.410Z,998.4
2017-03-05T08:10:43.437Z,998.39
2017-03-05T08:11:43.468Z,998.41
2017-03-05T08:12:43.497Z,998.39
2017-03-05T08:13:43.529Z,998.53
2017-03-05T08:14:43.562Z,998.73
2017-03-05T08:15:43.594Z,998.37
2017-03-05T08:16:43.625Z,998.36
2017-03-05T08:17:43.653Z,998.4
2017-03-05T08:18:43.688Z,998.36
2017-03-05T08:19:43.712Z,999.06
2017-03-05T08:20:43.750Z,999.09
2017-03-05T08:21:43.779Z,998.47
2017-03-05T08:22:43.811Z,998.39
2017-03-05T08:23:43.840Z,998.28
2017-03-05T08:24:43.877Z,998.36
2017-03-05T08:25:43.908Z,998.32
2017-03-05T08:26:43.941Z,998.39
2017-03-05T08:27:43.970Z,998.39
2017-03-05T08:28:44.158Z,998.4
2017-03-05T08:29:44.034Z,998.46
2017-03-05T08:30:44.070Z,998.45
2017-03-05T08:31:44.100Z,998.39
2017-03-05T08:32:44.133Z,998.45
2017-03-05T08:33:44.164Z,998.52
2017-03-05T08:34:44.195Z,998.46
2017-03-05T08:35:44.229Z,998.49
2017-03-05T08:36:44.261Z,998.53
2017-03-05T08:37:44.297Z,998.53
2017-03-05T08:38:44.328Z,998.55
2017-03-05T08:39:44.364Z,998.59
2017-03-05T08:40:44.392Z,998.61
2017-03-05T08:41:44.423Z,998.54
2017-03-05T08:42:44.454Z,998.63
2017-03-05T08:43:44.488Z,998.56
2017-03-05T08:44:44.520Z,998.61
2017-03-05T08:45:44.550Z,998.62
2017-03-05T08:46:44.584Z,998.64
2017-03-05T08:47:44.613Z,998.77
2017-03-05T08:48:44.643Z,998.72
2017-03-05T08:49:44.677Z,998.72
2017-03-05T08:50:44.696Z,998.83
2017-03-05T08:51:44.739Z,998.79
2017-03-05T08:52:44.772Z,998.8
2017-03-05T08:53:44.801Z,998.84
2017-03-05T08:54:44.837Z,998.88
2017-03-05T08:55:44.869Z,999.01
2017-03-05T08:56:44.901Z,998.95
2017-03-05T08:57:44.932Z,999.01
2017-03-05T08:58:44.961Z,999.1
2017-03-05T08:59:44.994Z,999.04
2017-03-05T09:00:45.027Z,999.12
2017-03-05T09:01:45.055Z,999.07
2017-03-05T09:02:45.087Z,999.15
2017-03-05T09:03:45.117Z,999.15
2017-03-05T09:04:45.153Z,999.19
2017-03-05T09:05:45.181Z,999.05
2017-03-05T09:06:45.212Z,999.09
2017-03-05T09:07:45.244Z,999.19
2017-03-05T09:08:45.279Z,999.17
2017-03-05T09:09:45.306Z,999.28
2017-03-05T09:10:45.339Z,999.41
2017-03-05T09:11:45.372Z,999.25
2017-03-05T09:12:45.401Z,999.23
2017-03-05T09:13:45.434Z,999.45
2017-03-05T09:14:45.465Z,999.37
2017-03-05T09:15:45.494Z,999.35
2017-03-05T09:16:45.533Z,999.53
2017-03-05T09:17:45.558Z,999.65
2017-03-05T09:18:45.591Z,999.68
2017-03-05T09:19:45.628Z,999.4
2017-03-05T09:20:45.656Z,999.89
2017-03-05T09:21:45.690Z,999.67
2017-03-05T09:22:45.722Z,999.64
2017-03-05T09:23:45.754Z,999.49
2017-03-05T09:24:45.925Z,999.45
2017-03-05T09:25:45.825Z,999.38
2017-03-05T09:26:45.858Z,999.3
2017-03-05T09:27:45.890Z,999.35
2017-03-05T09:28:45.925Z,999.39
2017-03-05T09:29:45.964Z,999.39
2017-03-05T09:30:45.996Z,999.34
2017-03-05T09:31:46.031Z,999.23
2017-03-05T09:32:46.067Z,999.33
2017-03-05T09:33:46.104Z,999.4
2017-03-05T09:34:46.124Z,999.38
2017-03-05T09:35:46.176Z,999.34
2017-03-05T09:36:46.212Z,999.34
2017-03-05T09:37:46.248Z,999.3
2017-03-05T09:38:46.283Z,999.31
2017-03-05T09:39:46.318Z,999.33
2017-03-05T09:40:46.352Z,999.3
2017-03-05T09:41:46.389Z,999.37
2017-03-05T09:42:46.427Z,999.45
2017-03-05T09:43:46.464Z,999.35
2017-03-05T09:44:46.503Z,999.4
2017-03-05T09:45:46.536Z,999.34
2017-03-05T09:46:46.571Z,999.33
2017-03-05T09:47:46.608Z,999.3
2017-03-05T09:48:46.649Z,999.32
2017-03-05T09:49:46.677Z,999.36
2017-03-05T09:50:46.719Z,999.38
2017-03-05T09:51:46.750Z,999.4
2017-03-05T09:52:46.787Z,999.39
2017-03-05T09:53:46.825Z,999.52
2017-03-05T09:54:46.858Z,999.46
2017-03-05T09:55:46.893Z,999.53
2017-03-05T09:56:46.930Z,999.48
2017-03-05T09:57:46.962Z,999.55
2017-03-05T09:58:46.999Z,999.58
2017-03-05T09:59:47.033Z,999.62
2017-03-05T10:00:47.067Z,999.58
2017-03-05T10:01:47.093Z,999.61
2017-03-05T10:02:47.127Z,999.6
2017-03-05T10:03:47.175Z,999.6
2017-03-05T10:04:47.211Z,999.67
2017-03-05T10:05:47.247Z,999.62
2017-03-05T10:06:47.285Z,999.59
2017-03-05T10:07:47.323Z,999.7
2017-03-05T10:08:47.356Z,999.62
2017-03-05T10:09:47.391Z,999.65
2017-03-05T10:10:47.426Z,999.69
2017-03-05T10:11:47.461Z,999.48
2017-03-05T10:12:47.501Z,999.63
2017-03-05T10:13:47.536Z,999.64
2017-03-05T10:14:47.572Z,999.71
2017-03-05T10:15:47.616Z,999.48
2017-03-05T10:16:47.646Z,999.76
2017-03-05T10:17:47.683Z,999.74
2017-03-05T10:18:47.723Z,999.76
2017-03-05T10:19:47.756Z,999.78
2017-03-05T10:20:48.092Z,999.81
2017-03-05T10:21:47.832Z,999.8
2017-03-05T10:22:47.869Z,999.8
2017-03-05T10:23:47.901Z,999.58
2017-03-05T10:24:47.927Z,999.72
2017-03-05T10:25:47.978Z,999.74
2017-03-05T10:26:48.011Z,999.51
2017-03-05T10:27:48.048Z,999.64
2017-03-05T10:28:48.088Z,999.71
2017-03-05T10:29:48.127Z,999.57
2017-03-05T10:30:48.157Z,999.68
2017-03-05T10:31:48.196Z,999.78
2017-03-05T10:32:48.233Z,999.79
2017-03-05T10:33:48.268Z,999.63
2017-03-05T10:34:48.305Z,999.9
2017-03-05T10:35:48.340Z,999.94
2017-03-05T10:36:48.376Z,999.99
2017-03-05T10:37:48.408Z,1000.18
2017-03-05T10:38:48.443Z,999.89
2017-03-05T10:39:48.480Z,999.76
2017-03-05T10:40:48.516Z,999.72
2017-03-05T10:41:48.540Z,999.74
2017-03-05T10:42:48.586Z,999.89
2017-03-05T10:43:48.627Z,999.73
2017-03-05T10:44:48.659Z,1000.54
2017-03-05T10:45:48.694Z,999.67
2017-03-05T10:46:48.727Z,999.65
2017-03-05T10:47:48.765Z,999.63
2017-03-05T10:48:48.797Z,999.62
2017-03-05T10:49:48.836Z,1000.2
2017-03-05T10:50:48.869Z,1000.47
2017-03-05T10:51:48.902Z,1000.88
2017-03-05T10:52:48.940Z,1001.13
2017-03-05T10:53:48.976Z,1001.38
2017-03-05T10:54:49.011Z,1001.43
2017-03-05T10:55:49.042Z,1001.42
2017-03-05T10:56:49.079Z,1001.25
2017-03-05T10:57:49.119Z,1001.04
2017-03-05T10:58:49.139Z,1000.78
2017-03-05T10:59:49.186Z,1000.58
2017-03-05T11:00:49.220Z,999.89
2017-03-05T11:01:49.256Z,1000.33
2017-03-05T11:02:49.287Z,999.99
2017-03-05T11:03:49.325Z,999.88
2017-03-05T11:04:49.361Z,999.78
2017-03-05T11:05:49.396Z,999.73
2017-03-05T11:06:49.432Z,999.63
2017-03-05T11:07:49.465Z,999.62
2017-03-05T11:08:49.501Z,999.7
2017-03-05T11:09:49.536Z,999.65
2017-03-05T11:10:49.588Z,999.65
2017-03-05T11:11:49.605Z,999.7
2017-03-05T11:12:49.643Z,999.66
2017-03-05T11:13:49.673Z,999.58
2017-03-05T11:14:49.707Z,999.6
2017-03-05T11:15:49.744Z,999.65
2017-03-05T11:16:49.775Z,999.68
2017-03-05T11:17:49.812Z,999.59
2017-03-05T11:18:49.845Z,999.6
2017-03-05T11:19:49.883Z,999.73
2017-03-05T11:20:49.916Z,999.7
2017-03-05T11:21:49.939Z,999.66
2017-03-05T11:22:49.985Z,999.69
2017-03-05T11:23:50.019Z,999.75
2017-03-05T11:24:50.047Z,999.72
2017-03-05T11:25:50.083Z,999.64
2017-03-05T11:26:50.118Z,999.65
2017-03-05T11:27:50.156Z,999.68
2017-03-05T11:28:50.189Z,999.67
2017-03-05T11:29:50.220Z,999.64
2017-03-05T11:30:50.257Z,999.71
2017-03-05T11:31:50.285Z,999.69
2017-03-05T11:32:50.321Z,999.68
2017-03-05T11:33:50.354Z,999.65
2017-03-05T11:34:50.387Z,999.66
2017-03-05T11:35:50.422Z,999.67
2017-03-05T11:36:50.454Z,999.71
2017-03-05T11:37:50.488Z,999.69
2017-03-05T11:38:50.520Z,999.73
2017-03-05T11:39:50.555Z,999.8
2017-03-05T11:40:50.586Z,999.78
2017-03-05T11:41:50.621Z,999.75
2017-03-05T11:42:50.656Z,999.8
2017-03-05T11:43:50.689Z,999.79
2017-03-05T11:44:50.719Z,999.85
2017-03-05T11:45:50.755Z,999.86
2017-03-05T11:46:50.784Z,999.79
2017-03-05T11:47:50.821Z,999.85
2017-03-05T11:48:50.845Z,999.76
2017-03-05T11:49:50.887Z,999.67
2017-03-05T11:50:50.924Z,999.73
2017-03-05T11:51:50.955Z,999.7
2017-03-05T11:52:50.989Z,999.76
2017-03-05T11:53:51.025Z,999.71
2017-03-05T11:54:51.056Z,999.7
2017-03-05T11:55:51.092Z,999.64
2017-03-05T11:56:51.126Z,999.72
2017-03-05T11:57:51.159Z,999.65
2017-03-05T11:58:51.193Z,999.68
2017-03-05T11:59:51.225Z,999.7
2017-03-05T12:00:51.262Z,999.79
2017-03-05T12:01:51.295Z,999.77
2017-03-05T12:02:51.331Z,999.75
2017-03-05T12:03:51.359Z,999.75
2017-03-05T12:04:51.397Z,999.71
2017-03-05T12:05:51.430Z,999.69
2017-03-05T12:06:51.462Z,999.69
2017-03-05T12:07:51.498Z,999.71
2017-03-05T12:08:51.531Z,999.72
2017-03-05T12:09:51.563Z,999.69
2017-03-05T12:10:51.604Z,999.71
2017-03-05T12:11:51.637Z,999.66
2017-03-05T12:12:51.665Z,999.67
2017-03-05T12:13:51.699Z,999.63
2017-03-05T12:14:51.735Z,999.63
2017-03-05T12:15:51.769Z,999.65
2017-03-05T12:16:51.802Z,999.6
2017-03-05T12:17:51.840Z,999.61
2017-03-05T12:18:51.871Z,999.6
2017-03-05T12:19:51.904Z,999.67
2017-03-05T12:20:51.936Z,999.6
2017-03-05T12:21:51.971Z,999.62
2017-03-05T12:22:52.006Z,999.67
2017-03-05T12:23:52.039Z,999.66
2017-03-05T12:24:52.073Z,999.63
2017-03-05T12:25:52.105Z,999.62
2017-03-05T12:26:52.140Z,999.6
2017-03-05T12:27:52.171Z,999.65
2017-03-05T12:28:52.207Z,999.62
2017-03-05T12:29:52.241Z,999.63
2017-03-05T12:30:52.270Z,999.59
2017-03-05T12:31:52.307Z,999.54
2017-03-05T12:32:52.339Z,999.56
2017-03-05T12:33:52.373Z,999.5
2017-03-05T12:34:52.407Z,999.45
2017-03-05T12:35:52.443Z,999.43
2017-03-05T12:36:52.473Z,999.48
2017-03-05T12:37:52.508Z,999.5
2017-03-05T12:38:52.541Z,999.5
2017-03-05T12:39:52.577Z,999.45
2017-03-05T12:40:52.607Z,999.48
2017-03-05T12:41:52.641Z,999.45
2017-03-05T12:42:52.674Z,999.48
2017-03-05T12:43:52.710Z,999.49
2017-03-05T12:44:52.742Z,999.47
2017-03-05T12:45:52.774Z,999.5
2017-03-05T12:46:52.808Z,999.53
2017-03-05T12:47:52.839Z,999.56
2017-03-05T12:48:52.873Z,999.59
2017-03-05T12:49:52.907Z,999.51
2017-03-05T12:50:52.937Z,999.56
2017-03-05T12:51:52.972Z,999.64
2017-03-05T12:52:53.006Z,999.57
2017-03-05T12:53:53.038Z,999.55
2017-03-05T12:54:53.075Z,999.53
2017-03-05T12:55:53.106Z,999.57
2017-03-05T12:56:53.138Z,999.64
2017-03-05T12:57:53.172Z,999.66
2017-03-05T12:58:53.207Z,999.62
2017-03-05T12:59:53.238Z,999.62
2017-03-05T13:00:53.275Z,999.65
2017-03-05T13:01:53.308Z,999.67
2017-03-05T13:02:53.340Z,999.72
2017-03-05T13:03:53.373Z,999.7
2017-03-05T13:04:53.410Z,999.64
2017-03-05T13:05:53.440Z,999.62
2017-03-05T13:06:53.476Z,999.6
2017-03-05T13:07:53.509Z,999.65
2017-03-05T13:08:53.540Z,999.64
2017-03-05T13:09:53.576Z,999.61
2017-03-05T13:10:53.610Z,999.59
2017-03-05T13:11:53.643Z,999.62
2017-03-05T13:12:53.678Z,999.58
2017-03-05T13:13:53.715Z,999.54
2017-03-05T13:14:53.729Z,999.55
2017-03-05T13:15:53.779Z,999.59
2017-03-05T13:16:53.812Z,999.6
2017-03-05T13:17:53.852Z,999.58
2017-03-05T13:18:53.881Z,999.55
2017-03-05T13:19:53.919Z,999.57
2017-03-05T13:20:53.949Z,999.56
2017-03-05T13:21:53.982Z,999.58
2017-03-05T13:22:54.020Z,999.54
2017-03-05T13:23:54.054Z,999.62
2017-03-05T13:24:54.087Z,999.56
2017-03-05T13:25:54.121Z,999.57
2017-03-05T13:26:54.155Z,999.59
2017-03-05T13:27:54.184Z,999.61
2017-03-05T13:28:54.222Z,999.66
2017-03-05T13:29:54.256Z,999.56
2017-03-05T13:30:54.290Z,999.63
2017-03-05T13:31:54.324Z,999.58
2017-03-05T13:32:54.357Z,999.61
2017-03-05T13:33:54.391Z,999.7
2017-03-05T13:34:54.425Z,999.67
2017-03-05T13:35:54.461Z,999.7
2017-03-05T13:36:54.494Z,999.69
2017-03-05T13:37:54.526Z,999.74
2017-03-05T13:38:54.561Z,999.67
2017-03-05T13:39:54.595Z,999.68
2017-03-05T13:40:54.631Z,999.68
2017-03-05T13:41:54.663Z,999.68
2017-03-05T13:42:54.700Z,999.68
2017-03-05T13:43:54.732Z,999.64
2017-03-05T13:44:54.763Z,999.63
2017-03-05T13:45:54.796Z,999.61
2017-03-05T13:46:54.832Z,999.58
2017-03-05T13:47:54.860Z,999.63
2017-03-05T13:48:54.899Z,999.58
2017-03-05T13:49:54.932Z,999.58
2017-03-05T13:50:54.962Z,999.59
2017-03-05T13:51:54.994Z,999.56
2017-03-05T13:52:55.031Z,999.55
2017-03-05T13:53:55.065Z,999.56
2017-03-05T13:54:55.096Z,999.53
2017-03-05T13:55:55.130Z,999.54
2017-03-05T13:56:55.164Z,999.57
2017-03-05T13:57:55.194Z,999.53
2017-03-05T13:58:55.232Z,999.58
2017-03-05T13:59:55.263Z,999.59
2017-03-05T14:00:55.295Z,999.59
2017-03-05T14:01:55.332Z,999.58
2017-03-05T14:02:55.364Z,999.62
2017-03-05T14:03:55.397Z,999.57
2017-03-05T14:04:55.431Z,999.6
2017-03-05T14:05:55.460Z,999.6
2017-03-05T14:06:55.493Z,999.64
2017-03-05T14:07:55.527Z,999.59
2017-03-05T14:08:55.559Z,999.61
2017-03-05T14:09:55.594Z,999.61
2017-03-05T14:10:55.627Z,999.62
2017-03-05T14:11:55.662Z,999.56
2017-03-05T14:12:55.693Z,999.59
2017-03-05T14:13:55.729Z,999.55
2017-03-05T14:14:55.758Z,999.5
2017-03-05T14:15:55.792Z,999.46
2017-03-05T14:16:55.826Z,999.55
2017-03-05T14:17:55.859Z,999.44
2017-03-05T14:18:55.890Z,999.52
2017-03-05T14:19:55.925Z,999.5
2017-03-05T14:20:55.952Z,999.5
2017-03-05T14:21:55.987Z,999.51
2017-03-05T14:22:56.025Z,999.53
2017-03-05T14:23:56.054Z,999.53
2017-03-05T14:24:56.086Z,999.54
2017-03-05T14:25:56.122Z,999.54
2017-03-05T14:26:56.153Z,999.57
2017-03-05T14:27:56.184Z,999.54
2017-03-05T14:28:56.220Z,999.51
2017-03-05T14:29:56.250Z,999.48
2017-03-05T14:30:56.283Z,999.55
2017-03-05T14:31:56.312Z,999.48
2017-03-05T14:32:56.350Z,999.51
2017-03-05T14:33:56.379Z,999.47
2017-03-05T14:34:56.412Z,999.47
2017-03-05T14:35:56.431Z,999.45
2017-03-05T14:36:56.477Z,999.44
2017-03-05T14:37:56.511Z,999.45
2017-03-05T14:38:56.540Z,999.42
2017-03-05T14:39:56.572Z,999.44
2017-03-05T14:40:56.607Z,999.41
2017-03-05T14:41:56.637Z,999.47
2017-03-05T14:42:56.672Z,999.43
2017-03-05T14:43:56.704Z,999.39
2017-03-05T14:44:56.734Z,999.34
2017-03-05T14:45:56.767Z,999.42
2017-03-05T14:46:56.803Z,999.38
2017-03-05T14:47:56.834Z,999.38
2017-03-05T14:48:56.866Z,999.33
2017-03-05T14:49:56.898Z,999.31
2017-03-05T14:50:56.935Z,999.32
2017-03-05T14:51:56.964Z,999.31
2017-03-05T14:52:56.998Z,999.34
2017-03-05T14:53:57.032Z,999.36
2017-03-05T14:54:57.065Z,999.39
2017-03-05T14:55:57.096Z,999.38
2017-03-05T14:56:57.125Z,999.37
2017-03-05T14:57:57.157Z,999.3
2017-03-05T14:58:57.193Z,999.35
2017-03-05T14:59:57.223Z,999.33
2017-03-05T15:00:57.253Z,999.35
2017-03-05T15:01:57.289Z,999.33
2017-03-05T15:02:57.325Z,999.35
2017-03-05T15:03:57.354Z,999.4
2017-03-05T15:04:57.385Z,999.37
2017-03-05T15:05:57.421Z,999.36
2017-03-05T15:06:57.452Z,999.38
2017-03-05T15:07:57.482Z,999.31
2017-03-05T15:08:57.519Z,999.36
2017-03-05T15:09:57.551Z,999.39
2017-03-05T15:10:57.581Z,999.35
2017-03-05T15:11:57.613Z,999.31
2017-03-05T15:12:57.646Z,999.34
2017-03-05T15:13:57.679Z,999.3
2017-03-05T15:14:57.711Z,999.28
2017-03-05T15:15:57.755Z,999.29
2017-03-05T15:16:57.779Z,999.22
2017-03-05T15:17:57.811Z,999.24
2017-03-05T15:18:57.830Z,999.27
2017-03-05T15:19:57.874Z,999.26
2017-03-05T15:20:57.909Z,999.3
2017-03-05T15:21:57.942Z,999.21
2017-03-05T15:22:57.979Z,999.28
2017-03-05T15:23:58.003Z,999.22
2017-03-05T15:24:58.036Z,999.36
2017-03-05T15:25:58.072Z,999.26
2017-03-05T15:26:58.104Z,999.29
2017-03-05T15:27:58.135Z,999.28
2017-03-05T15:28:58.168Z,999.26
2017-03-05T15:29:58.201Z,999.29
2017-03-05T15:30:58.233Z,999.29
2017-03-05T15:31:58.267Z,999.33
2017-03-05T15:32:58.297Z,999.27
2017-03-05T15:33:58.330Z,999.24
2017-03-05T15:34:58.351Z,999.31
2017-03-05T15:35:58.394Z,999.28
2017-03-05T15:36:58.431Z,999.29
2017-03-05T15:37:58.457Z,999.23
2017-03-05T15:38:58.491Z,999.21
2017-03-05T15:39:58.522Z,999.21
2017-03-05T15:40:58.552Z,999.22
2017-03-05T15:41:58.587Z,999.25
2017-03-05T15:42:58.620Z,999.21
2017-03-05T15:43:58.652Z,999.23
2017-03-05T15:44:58.684Z,999.24
2017-03-05T15:45:58.714Z,999.25
2017-03-05T15:46:58.747Z,999.25
2017-03-05T15:47:58.777Z,999.26
2017-03-05T15:48:58.806Z,999.27
2017-03-05T15:49:58.842Z,999.31
2017-03-05T15:50:58.874Z,999.34
2017-03-05T15:51:58.907Z,999.37
2017-03-05T15:52:58.953Z,999.32
2017-03-05T15:53:58.973Z,999.33
2017-03-05T15:54:59.012Z,999.33
2017-03-05T15:55:59.034Z,999.34
2017-03-05T15:56:59.071Z,999.39
2017-03-05T15:57:59.100Z,999.33
2017-03-05T15:58:59.130Z,999.34
2017-03-05T15:59:59.160Z,999.32
2017-03-05T16:00:59.193Z,999.29
2017-03-05T16:01:59.225Z,999.31
2017-03-05T16:02:59.255Z,999.3
2017-03-05T16:03:59.288Z,999.27
2017-03-05T16:04:59.322Z,999.27
2017-03-05T16:05:59.353Z,999.3
2017-03-05T16:06:59.381Z,999.22
2017-03-05T16:07:59.413Z,999.25
2017-03-05T16:08:59.431Z,999.27
2017-03-05T16:09:59.479Z,999.31
2017-03-05T16:10:59.512Z,999.3
2017-03-05T16:11:59.533Z,999.33
2017-03-05T16:12:59.572Z,999.29
2017-03-05T16:13:59.607Z,999.26
2017-03-05T16:14:59.637Z,999.24
2017-03-05T16:15:59.670Z,999.32
2017-03-05T16:16:59.701Z,999.25
2017-03-05T16:17:59.736Z,999.3
2017-03-05T16:18:59.763Z,999.34
2017-03-05T16:19:59.799Z,999.31
2017-03-05T16:20:59.827Z,999.35
2017-03-05T16:21:59.860Z,999.37
2017-03-05T16:22:59.889Z,999.32
2017-03-05T16:23:59.926Z,999.35
2017-03-05T16:24:59.952Z,999.34
2017-03-05T16:25:59.985Z,999.34
2017-03-05T16:27:00.021Z,999.41
2017-03-05T16:28:00.051Z,999.41
2017-03-05T16:29:00.078Z,999.39
2017-03-05T16:30:00.115Z,999.36
2017-03-05T16:31:00.145Z,999.39
2017-03-05T16:32:00.176Z,999.36
2017-03-05T16:33:00.204Z,999.36
2017-03-05T16:34:00.238Z,999.41
2017-03-05T16:35:00.268Z,999.42
2017-03-05T16:36:00.299Z,999.41
2017-03-05T16:37:00.336Z,999.43
2017-03-05T16:38:00.363Z,999.39
2017-03-05T16:39:00.395Z,999.41
2017-03-05T16:40:00.430Z,999.39
2017-03-05T16:41:00.460Z,999.39
2017-03-05T16:42:00.489Z,999.38
2017-03-05T16:43:00.519Z,999.37
2017-03-05T16:44:00.553Z,999.42
2017-03-05T16:45:00.584Z,999.37
2017-03-05T16:46:00.617Z,999.38
2017-03-05T16:47:00.647Z,999.41
2017-03-05T16:48:00.676Z,999.45
2017-03-05T16:49:00.711Z,999.35
2017-03-05T16:50:00.743Z,999.42
2017-03-05T16:51:00.771Z,999.37
2017-03-05T16:52:00.805Z,999.38
2017-03-05T16:53:00.841Z,999.32
2017-03-05T16:54:00.869Z,999.38
2017-03-05T16:55:00.899Z,999.39
2017-03-05T16:56:00.930Z,999.33
2017-03-05T16:57:00.962Z,999.38
2017-03-05T16:58:00.990Z,999.34
2017-03-05T16:59:01.022Z,999.37
2017-03-05T17:00:01.059Z,999.41
2017-03-05T17:01:01.080Z,999.38
2017-03-05T17:02:01.116Z,999.37
2017-03-05T17:03:01.151Z,999.39
2017-03-05T17:04:01.182Z,999.37
2017-03-05T17:05:01.209Z,999.37
2017-03-05T17:06:01.241Z,999.4
2017-03-05T17:07:01.272Z,999.34
2017-03-05T17:08:01.303Z,999.39
2017-03-05T17:09:01.336Z,999.35
2017-03-05T17:10:01.369Z,999.35
2017-03-05T17:11:01.399Z,999.36
2017-03-05T17:12:01.427Z,999.35
2017-03-05T17:13:01.460Z,999.38
2017-03-05T17:14:01.491Z,999.39
2017-03-05T17:15:01.520Z,999.34
2017-03-05T17:16:01.553Z,999.34
2017-03-05T17:17:01.586Z,999.3
2017-03-05T17:18:01.615Z,999.41
2017-03-05T17:19:01.645Z,999.38
2017-03-05T17:20:01.664Z,999.4
2017-03-05T17:21:01.706Z,999.36
2017-03-05T17:22:01.741Z,999.34
2017-03-05T17:23:01.768Z,999.36
2017-03-05T17:24:01.801Z,999.36
2017-03-05T17:25:01.836Z,999.35
2017-03-05T17:26:01.867Z,999.35
2017-03-05T17:27:01.895Z,999.39
2017-03-05T17:28:01.927Z,999.39
2017-03-05T17:29:01.965Z,999.32
2017-03-05T17:30:01.989Z,999.34
2017-03-05T17:31:02.019Z,999.31
2017-03-05T17:32:02.052Z,999.36
2017-03-05T17:33:02.083Z,999.28
2017-03-05T17:34:02.111Z,999.29
2017-03-05T17:35:02.143Z,999.36
2017-03-05T17:36:02.175Z,999.34
2017-03-05T17:37:02.207Z,999.29
2017-03-05T17:38:02.235Z,999.31
2017-03-05T17:39:02.267Z,999.32
2017-03-05T17:40:02.299Z,999.32
2017-03-05T17:41:02.334Z,999.31
2017-03-05T17:42:02.365Z,999.33
2017-03-05T17:43:02.391Z,999.27
2017-03-05T17:44:02.422Z,999.31
2017-03-05T17:45:02.453Z,999.31
2017-03-05T17:46:02.485Z,999.34
2017-03-05T17:47:02.514Z,999.35
2017-03-05T17:48:02.547Z,999.35
2017-03-05T17:49:02.562Z,999.33
2017-03-05T17:50:02.606Z,999.35
2017-03-05T17:51:02.638Z,999.35
2017-03-05T17:52:02.668Z,999.38
2017-03-05T17:53:02.698Z,999.45
2017-03-05T17:54:02.728Z,999.42
2017-03-05T17:55:02.758Z,999.45
2017-03-05T17:56:02.791Z,999.42
2017-03-05T17:57:02.823Z,999.43
2017-03-05T17:58:02.854Z,999.4
2017-03-05T17:59:02.884Z,999.36
2017-03-05T18:00:02.909Z,999.34
2017-03-05T18:01:02.946Z,999.33
2017-03-05T18:02:02.972Z,999.29
2017-03-05T18:03:03.003Z,999.3
2017-03-05T18:04:03.035Z,999.32
2017-03-05T18:05:03.068Z,999.34
2017-03-05T18:06:03.082Z,999.34
2017-03-05T18:07:03.126Z,999.31
2017-03-05T18:08:03.159Z,999.35
2017-03-05T18:09:03.190Z,999.3
2017-03-05T18:10:03.221Z,999.27
2017-03-05T18:11:03.252Z,999.23
2017-03-05T18:12:03.282Z,999.25
2017-03-05T18:13:03.313Z,999.2
2017-03-05T18:14:03.342Z,999.24
2017-03-05T18:15:03.372Z,999.24
2017-03-05T18:16:03.403Z,999.28
2017-03-05T18:17:03.422Z,999.25
2017-03-05T18:18:03.467Z,999.26
2017-03-05T18:19:03.500Z,999.25
2017-03-05T18:20:03.526Z,999.24
2017-03-05T18:21:03.758Z,999.23
2017-03-05T18:22:03.575Z,999.28
2017-03-05T18:23:03.618Z,999.21
2017-03-05T18:24:03.657Z,999.29
2017-03-05T18:25:03.702Z,999.24
2017-03-05T18:26:03.721Z,999.25
2017-03-05T18:27:03.760Z,999.26
2017-03-05T18:28:03.766Z,999.3
2017-03-05T18:29:03.805Z,999.27
2017-03-05T18:30:03.835Z,999.24
2017-03-05T18:31:03.864Z,999.25
2017-03-05T18:32:03.897Z,999.24
2017-03-05T18:33:03.927Z,999.26
2017-03-05T18:34:03.959Z,999.25
2017-03-05T18:35:03.999Z,999.24
2017-03-05T18:36:04.017Z,999.25
2017-03-05T18:37:04.045Z,999.25
2017-03-05T18:38:04.077Z,999.25
2017-03-05T18:39:04.111Z,999.26
2017-03-05T18:40:04.155Z,999.29
2017-03-05T18:41:04.168Z,999.31
2017-03-05T18:42:04.200Z,999.29
2017-03-05T18:43:04.232Z,999.26
2017-03-05T18:44:04.265Z,999.23
2017-03-05T18:45:04.299Z,999.25
2017-03-05T18:46:04.324Z,999.24
